Time;durP1;ratioP1;P1;durP2;ratioP2;P2;SDS_P1;SDS_P2;PMS_P1;PMS_P2;Temp;Humidity;BMP_temperature;BMP_pressure;BME280_temperature;BME280_humidity;BME280_pressure;Samples;Min_cycle;Max_cycle;Signal;HPM_P1;HPM_P2
2022/09/11 00:00:46;;;;;;;28.50;25.40;;;;;;;14.10;nan;101580.59;5051292;28;20037;-62
2022/09/11 00:03:12;;;;;;;27.95;24.80;;;;;;;14.55;nan;101657.59;5058108;28;20384;-62
2022/09/11 00:05:42;;;;;;;29.98;25.45;;;;;;;14.59;nan;101672.47;5035836;28;20040;-62
2022/09/11 00:08:10;;;;;;;32.30;25.67;;;;;;;14.66;nan;101663.38;5036199;28;20133;-61
2022/09/11 00:10:39;;;;;;;28.05;25.02;;;;;;;14.63;nan;101639.63;5044177;28;20108;-62
2022/09/11 00:13:09;;;;;;;29.30;25.48;;;;;;;14.38;nan;101585.81;5044125;28;20498;-63
2022/09/11 00:15:42;;;;;;;31.02;24.75;;;;;;;14.77;nan;101649.75;5051630;28;20044;-63
2022/09/11 00:18:10;;;;;;;26.83;24.02;;;;;;;14.62;nan;101625.50;5036238;28;20025;-63
2022/09/11 00:20:36;;;;;;;29.38;24.38;;;;;;;14.19;nan;101547.63;5050658;28;20032;-62
2022/09/11 00:23:04;;;;;;;28.48;24.95;;;;;;;14.79;nan;101661.13;5033966;28;20058;-63
2022/09/11 00:25:39;;;;;;;27.83;24.05;;;;;;;14.71;nan;101656.09;5051818;28;20043;-61
2022/09/11 00:28:05;;;;;;;27.45;24.60;;;;;;;14.47;nan;101614.63;5032102;28;20025;-62
2022/09/11 00:30:30;;;;;;;30.35;24.40;;;;;;;14.24;nan;101574.81;5031952;28;20033;-62
2022/09/11 00:32:56;;;;;;;27.58;23.60;;;;;;;14.68;nan;101647.44;5031732;28;20388;-61
2022/09/11 00:35:22;;;;;;;27.00;24.08;;;;;;;14.69;nan;101660.59;5030555;28;20033;-63
2022/09/11 00:37:47;;;;;;;26.83;23.30;;;;;;;14.64;nan;101655.47;5048403;28;20384;-63
2022/09/11 00:40:14;;;;;;;28.60;24.50;;;;;;;14.51;nan;101632.13;5048422;28;20036;-63
2022/09/11 00:42:40;;;;;;;29.90;23.63;;;;;;;14.48;nan;101643.69;5043947;28;20052;-62
2022/09/11 00:45:07;;;;;;;26.85;23.17;;;;;;;14.52;nan;101642.66;5059252;28;20075;-61
2022/09/11 00:47:34;;;;;;;27.42;23.90;;;;;;;14.50;nan;101643.66;5050451;28;20037;-62
2022/09/11 00:50:09;;;;;;;27.00;24.10;;;;;;;14.40;nan;101659.00;5039087;28;20029;-63
2022/09/11 00:52:38;;;;;;;28.08;25.15;;;;;;;14.28;nan;101634.69;5063194;28;20013;-64
2022/09/11 00:55:06;;;;;;;26.10;23.30;;;;;;;14.23;nan;101652.53;5046412;28;20040;-64
2022/09/11 00:57:35;;;;;;;30.77;25.40;;;;;;;14.28;nan;101664.69;5055482;28;20116;-63
2022/09/11 01:00:01;;;;;;;28.20;24.98;;;;;;;13.58;nan;101539.19;5052076;28;20048;-61
2022/09/11 01:02:28;;;;;;;28.13;25.10;;;;;;;14.12;nan;101637.00;5042307;28;20468;-61
2022/09/11 01:04:54;;;;;;;28.27;24.92;;;;;;;14.17;nan;101655.38;5060601;28;20120;-63
2022/09/11 01:07:20;;;;;;;26.30;23.50;;;;;;;13.95;nan;101621.69;5049527;28;20033;-62
2022/09/11 01:09:46;;;;;;;28.10;24.42;;;;;;;13.72;nan;101592.47;5052991;28;20037;-63
2022/09/11 01:12:19;;;;;;;31.00;23.88;;;;;;;13.83;nan;101624.78;5038993;28;20037;-62
2022/09/11 01:15:01;;;;;;;27.75;24.60;;;;;;;14.06;nan;101671.63;5061458;28;20455;-62
2022/09/11 01:17:45;;;;;;;31.55;25.13;;;;;;;14.01;nan;101663.84;5048942;28;20033;-62
2022/09/11 01:20:25;;;;;;;33.50;25.50;;;;;;;13.98;nan;101663.09;5039734;28;20062;-61
2022/09/11 01:22:56;;;;;;;32.33;26.70;;;;;;;13.95;nan;101673.78;5055146;28;20032;-61
2022/09/11 01:25:28;;;;;;;;;;;;;;;13.94;nan;101666.75;5041321;28;20029;-63
2022/09/11 01:27:56;;;;;;;31.20;25.50;;;;;;;13.57;nan;101600.94;5051528;28;19913;-64
2022/09/11 01:30:23;;;;;;;30.60;25.95;;;;;;;13.81;nan;101660.97;5039919;28;20025;-63
2022/09/11 01:33:10;;;;;;;34.25;27.27;;;;;;;13.83;nan;101680.34;5060779;28;20399;-61
2022/09/11 01:35:43;;;;;;;29.42;25.33;;;;;;;13.38;nan;101613.03;5034759;28;20036;-62
2022/09/11 01:38:08;;;;;;;31.73;25.58;;;;;;;13.76;nan;101662.03;5034780;28;20389;-63
2022/09/11 01:41:00;;;;;;;29.98;26.33;;;;;;;13.74;nan;101662.13;5041326;28;20035;-62
2022/09/11 01:43:29;;;;;;;29.52;24.35;;;;;;;13.30;nan;101597.41;5053687;28;20048;-65
2022/09/11 01:45:57;;;;;;;32.55;25.73;;;;;;;13.67;nan;101668.50;5052576;28;20048;-62
2022/09/11 01:48:30;;;;;;;31.38;24.98;;;;;;;13.64;nan;101671.25;5062904;28;20029;-62
2022/09/11 01:50:57;;;;;;;29.85;25.15;;;;;;;13.63;nan;101673.97;5044488;28;20029;-61
2022/09/11 01:53:26;;;;;;;30.17;25.20;;;;;;;13.58;nan;101670.56;5039512;28;20038;-61
2022/09/11 01:56:02;;;;;;;35.88;27.05;;;;;;;13.48;nan;101651.50;5051105;28;20047;-63
2022/09/11 01:58:29;;;;;;;27.92;24.73;;;;;;;13.16;nan;101607.56;5040105;28;20079;-61
2022/09/11 02:01:08;;;;;;;31.42;26.85;;;;;;;13.51;nan;101659.34;5059472;28;20033;-61
2022/09/11 02:03:38;;;;;;;35.30;26.45;;;;;;;13.52;nan;101671.63;5049077;28;20033;-61
2022/09/11 02:06:06;;;;;;;31.13;25.55;;;;;;;13.46;nan;101658.59;5070020;28;20021;-63
2022/09/11 02:08:45;;;;;;;34.72;26.65;;;;;;;13.52;nan;101675.16;5052725;28;20084;-62
2022/09/11 02:11:13;;;;;;;36.92;26.70;;;;;;;13.31;nan;101644.06;5052913;28;20037;-60
2022/09/11 02:13:51;;;;;;;35.97;27.92;;;;;;;13.33;nan;101657.25;5032768;28;20056;-61
2022/09/11 02:16:27;;;;;;;35.65;27.48;;;;;;;13.45;nan;101678.91;5018475;28;20041;-62
2022/09/11 02:19:18;;;;;;;35.05;27.92;;;;;;;13.41;nan;101679.03;5044319;28;20041;-62
2022/09/11 02:21:46;;;;;;;34.50;27.45;;;;;;;13.03;nan;101615.84;5052690;28;20102;-64
2022/09/11 02:24:12;;;;;;;34.20;27.25;;;;;;;13.36;nan;101681.84;5037311;28;20064;-61
2022/09/11 02:26:41;;;;;;;35.28;29.45;;;;;;;13.26;nan;101669.78;5045773;28;20033;-61
2022/09/11 02:29:07;;;;;;;37.20;28.88;;;;;;;13.01;nan;101634.41;5046060;28;20488;-61
2022/09/11 02:31:32;;;;;;;35.03;27.05;;;;;;;13.23;nan;101680.47;5052711;28;20060;-61
2022/09/11 02:33:58;;;;;;;38.85;27.00;;;;;;;12.97;nan;101636.28;5019521;28;20450;-62
2022/09/11 02:36:31;;;;;;;34.78;26.60;;;;;;;13.23;nan;101692.81;5053720;28;20029;-64
2022/09/11 02:39:15;;;;;;;35.60;27.20;;;;;;;13.20;nan;101688.47;5043019;28;20108;-63
2022/09/11 02:41:40;;;;;;;37.53;27.75;;;;;;;13.17;nan;101692.97;5050232;28;20040;-63
2022/09/11 02:44:22;;;;;;;38.47;28.45;;;;;;;13.12;nan;101681.69;5037399;28;20033;-63
2022/09/11 02:46:55;;;;;;;;;;;;;;;13.14;nan;101691.31;5059918;28;20041;-60
2022/09/11 02:49:30;;;;;;;39.72;27.85;;;;;;;13.11;nan;101680.81;5046471;28;19912;-63
2022/09/11 02:52:07;;;;;;;46.42;29.33;;;;;;;13.08;nan;101683.53;5036888;28;20143;-64
2022/09/11 02:54:44;;;;;;;40.97;28.52;;;;;;;13.08;nan;101686.19;5061360;28;20086;-60
2022/09/11 02:57:29;;;;;;;37.03;29.23;;;;;;;12.72;nan;101637.03;5046118;28;20032;-61
2022/09/11 03:00:06;;;;;;;40.53;29.83;;;;;;;12.78;nan;101658.00;5034641;28;20037;-62
2022/09/11 03:02:37;;;;;;;42.10;31.25;;;;;;;13.06;nan;101702.97;5040084;28;20043;-61
2022/09/11 03:05:03;;;;;;;40.60;29.63;;;;;;;12.99;nan;101689.06;5035651;28;20487;-60
2022/09/11 03:07:29;;;;;;;41.22;30.38;;;;;;;12.98;nan;101688.22;5052996;28;20036;-61
2022/09/11 03:09:55;;;;;;;41.38;30.85;;;;;;;13.06;nan;101695.03;5036270;28;20048;-62
2022/09/11 03:12:20;;;;;;;43.42;30.27;;;;;;;12.94;nan;101683.94;5047354;28;20481;-60
2022/09/11 03:14:46;;;;;;;42.67;31.50;;;;;;;12.78;nan;101658.84;5042479;28;20045;-61
2022/09/11 03:17:12;;;;;;;42.10;30.50;;;;;;;13.05;nan;101717.13;5040007;28;20041;-62
2022/09/11 03:19:37;;;;;;;42.03;30.08;;;;;;;12.65;nan;101646.91;5049339;28;20392;-62
2022/09/11 03:22:02;;;;;;;43.03;29.48;;;;;;;12.90;nan;101697.28;5051781;28;20468;-61
2022/09/11 03:24:28;;;;;;;41.75;30.10;;;;;;;12.92;nan;101690.16;5045881;28;20098;-61
2022/09/11 03:26:53;;;;;;;45.15;30.90;;;;;;;12.84;nan;101690.38;5043333;28;20033;-61
2022/09/11 03:29:19;;;;;;;41.90;31.65;;;;;;;12.57;nan;101637.47;5038842;28;20044;-60
2022/09/11 03:31:44;;;;;;;46.22;33.05;;;;;;;12.52;nan;101634.09;5049001;28;20032;-63
2022/09/11 03:34:09;;;;;;;43.55;32.08;;;;;;;12.88;nan;101701.72;5035728;28;20025;-61
2022/09/11 03:36:35;;;;;;;44.88;31.85;;;;;;;12.78;nan;101690.53;5047315;28;20025;-60
2022/09/11 03:39:01;;;;;;;45.60;30.35;;;;;;;12.63;nan;101658.41;5032491;28;20184;-64
2022/09/11 03:41:26;;;;;;;43.30;31.58;;;;;;;12.83;nan;101693.06;5032875;28;20030;-62
2022/09/11 03:43:51;;;;;;;45.45;32.22;;;;;;;12.81;nan;101700.19;5032241;28;20041;-61
2022/09/11 03:46:17;;;;;;;47.28;33.50;;;;;;;12.78;nan;101701.09;5036942;28;20033;-60
2022/09/11 03:48:45;;;;;;;47.08;33.25;;;;;;;12.73;nan;101700.38;5042121;28;20117;-62
2022/09/11 03:51:11;;;;;;;50.00;32.70;;;;;;;12.72;nan;101711.00;5045039;28;20045;-61
2022/09/11 03:53:37;;;;;;;47.88;30.42;;;;;;;12.70;nan;101708.38;5036230;28;20084;-62
2022/09/11 03:56:05;;;;;;;45.75;32.15;;;;;;;12.64;nan;101697.16;5047451;28;20034;-62
2022/09/11 03:58:30;;;;;;;49.45;32.63;;;;;;;12.39;nan;101660.81;5032484;28;20075;-60
2022/09/11 04:00:56;;;;;;;45.85;31.40;;;;;;;12.69;nan;101711.94;5033013;28;20053;-61
2022/09/11 04:03:21;;;;;;;49.75;32.72;;;;;;;12.68;nan;101704.91;5032235;28;20484;-61
2022/09/11 04:06:00;;;;;;;46.22;33.65;;;;;;;12.37;nan;101657.34;5032539;28;20030;-61
2022/09/11 04:08:26;;;;;;;48.67;33.10;;;;;;;12.62;nan;101696.28;5031070;28;20092;-61
2022/09/11 04:10:56;;;;;;;47.10;31.52;;;;;;;12.64;nan;101692.69;5032519;28;20072;-62
2022/09/11 04:13:28;;;;;;;48.38;31.75;;;;;;;12.60;nan;101699.00;5031201;28;20044;-61
2022/09/11 04:15:58;;;;;;;47.30;31.75;;;;;;;12.56;nan;101697.31;5030621;28;20022;-60
2022/09/11 04:18:23;;;;;;;49.28;33.42;;;;;;;12.62;nan;101712.13;5032404;28;20041;-61
2022/09/11 04:20:48;;;;;;;50.50;33.78;;;;;;;12.60;nan;101708.69;5032269;28;20084;-62
2022/09/11 04:23:13;;;;;;;46.90;32.38;;;;;;;12.47;nan;101688.78;5032448;28;20087;-64
2022/09/11 04:25:39;;;;;;;51.15;32.40;;;;;;;12.22;nan;101648.97;5032272;28;20397;-61
2022/09/11 04:28:04;;;;;;;47.50;32.30;;;;;;;12.24;nan;101655.06;5031109;28;20037;-62
2022/09/11 04:30:29;;;;;;;47.30;32.88;;;;;;;12.49;nan;101713.38;5032077;28;20052;-61
2022/09/11 04:32:55;;;;;;;53.35;35.10;;;;;;;12.20;nan;101666.63;5032112;28;20040;-63
2022/09/11 04:35:20;;;;;;;59.28;36.88;;;;;;;12.55;nan;101727.28;5032084;28;20532;-61
2022/09/11 04:37:45;;;;;;;55.95;34.65;;;;;;;12.60;nan;101733.31;5040382;28;20037;-63
2022/09/11 04:40:10;;;;;;;53.22;33.58;;;;;;;12.23;nan;101659.47;5049507;28;20040;-60
2022/09/11 04:42:36;;;;;;;57.38;35.33;;;;;;;12.55;nan;101719.34;5051626;28;20044;-61
2022/09/11 04:45:02;;;;;;;56.78;35.67;;;;;;;12.62;nan;101730.63;5050847;28;20041;-60
2022/09/11 04:47:27;;;;;;;54.70;34.80;;;;;;;12.61;nan;101736.84;5050835;28;20075;-63
2022/09/11 04:49:53;;;;;;;51.83;33.17;;;;;;;12.51;nan;101720.34;5051711;28;20502;-62
2022/09/11 04:52:19;;;;;;;53.35;32.95;;;;;;;12.58;nan;101729.84;5051995;28;20041;-61
2022/09/11 04:54:45;;;;;;;54.42;33.75;;;;;;;12.59;nan;101739.50;5052060;28;20095;-62
2022/09/11 04:57:10;;;;;;;48.95;32.05;;;;;;;12.25;nan;101683.22;5052085;28;20041;-61
2022/09/11 04:59:36;;;;;;;48.22;30.45;;;;;;;12.58;nan;101745.69;5051958;28;20480;-62
2022/09/11 05:02:02;;;;;;;47.47;31.08;;;;;;;12.20;nan;101685.13;5051991;28;20033;-62
2022/09/11 05:04:27;;;;;;;50.30;31.48;;;;;;;12.54;nan;101754.63;5051742;28;20029;-63
2022/09/11 05:06:52;;;;;;;46.42;30.95;;;;;;;12.14;nan;101687.91;5050722;28;20465;-62
2022/09/11 05:09:18;;;;;;;49.30;31.48;;;;;;;12.40;nan;101735.63;5051934;28;20056;-62
2022/09/11 05:11:43;;;;;;;48.20;31.60;;;;;;;12.43;nan;101742.59;5050243;28;20029;-61
2022/09/11 05:14:08;;;;;;;49.90;29.17;;;;;;;12.55;nan;101758.97;5050520;28;20075;-61
2022/09/11 05:16:35;;;;;;;48.08;29.98;;;;;;;12.25;nan;101706.97;5051757;28;20040;-60
2022/09/11 05:19:03;;;;;;;44.30;28.63;;;;;;;12.58;nan;101760.69;5050897;28;20033;-63
2022/09/11 05:21:30;;;;;;;39.83;27.60;;;;;;;12.66;nan;101769.28;5050021;28;20033;-62
2022/09/11 05:23:57;;;;;;;43.13;27.83;;;;;;;12.31;nan;101718.25;5050414;28;20075;-61
2022/09/11 05:26:28;;;;;;;47.90;26.17;;;;;;;12.59;nan;101778.25;5053431;28;20043;-61
2022/09/11 05:28:55;;;;;;;44.97;27.55;;;;;;;12.58;nan;101768.63;5054355;28;20033;-61
2022/09/11 05:31:20;;;;;;;41.85;26.30;;;;;;;12.57;nan;101773.03;5055173;28;20039;-64
2022/09/11 05:33:46;;;;;;;45.95;26.75;;;;;;;12.25;nan;101720.16;5054972;28;20032;-60
2022/09/11 05:36:14;;;;;;;41.05;27.30;;;;;;;12.30;nan;101736.75;5054071;28;20112;-61
2022/09/11 05:38:39;;;;;;;43.67;27.52;;;;;;;12.24;nan;101721.06;5055046;28;20029;-61
2022/09/11 05:41:07;;;;;;;40.85;27.92;;;;;;;12.28;nan;101728.88;5055173;28;20048;-60
2022/09/11 05:43:33;;;;;;;43.72;28.30;;;;;;;12.21;nan;101718.50;5047867;28;20029;-61
2022/09/11 05:45:58;;;;;;;39.90;26.17;;;;;;;12.67;nan;101803.56;5037196;28;20091;-60
2022/09/11 05:48:26;;;;;;;40.25;25.85;;;;;;;12.71;nan;101783.22;5054940;28;20442;-61
2022/09/11 05:51:00;;;;;;;39.45;27.08;;;;;;;12.53;nan;101744.94;5070599;28;20055;-61
2022/09/11 05:53:27;;;;;;;41.92;26.90;;;;;;;12.80;nan;101778.56;5054900;28;20465;-62
2022/09/11 05:55:52;;;;;;;42.08;27.25;;;;;;;12.43;nan;101706.50;5070420;28;20132;-62
2022/09/11 05:58:18;;;;;;;39.35;26.45;;;;;;;12.56;nan;101718.47;5054874;28;20112;-61
2022/09/11 06:00:47;;;;;;;40.33;26.30;;;;;;;12.98;nan;101783.38;5054651;28;20048;-60
2022/09/11 06:03:15;;;;;;;44.90;26.98;;;;;;;13.01;nan;101785.06;5069862;28;20029;-60
2022/09/11 06:05:41;;;;;;;40.50;26.58;;;;;;;13.13;nan;101790.03;5054874;28;20033;-61
2022/09/11 06:08:07;;;;;;;42.85;26.95;;;;;;;13.17;nan;101794.31;5053352;28;20060;-61
2022/09/11 06:10:33;;;;;;;39.17;25.77;;;;;;;12.91;nan;101736.00;5053170;28;20472;-61
2022/09/11 06:12:59;;;;;;;41.47;26.38;;;;;;;13.27;nan;101784.34;5054651;28;20045;-62
2022/09/11 06:15:24;;;;;;;43.10;26.90;;;;;;;13.18;nan;101760.81;5070005;28;20059;-61
2022/09/11 06:17:50;;;;;;;43.67;28.63;;;;;;;13.47;nan;101795.22;5070134;28;20044;-62
2022/09/11 06:20:15;;;;;;;45.90;29.35;;;;;;;13.54;nan;101794.97;5054623;28;20041;-62
2022/09/11 06:22:40;;;;;;;41.47;27.40;;;;;;;13.62;nan;101800.06;5054318;28;20427;-61
2022/09/11 06:25:06;;;;;;;43.42;29.02;;;;;;;13.65;nan;101791.16;5053050;28;20044;-61
2022/09/11 06:27:31;;;;;;;46.70;29.60;;;;;;;13.68;nan;101788.44;5054040;28;20033;-63
2022/09/11 06:29:57;;;;;;;44.88;28.38;;;;;;;13.80;nan;101798.66;5054083;28;20120;-61
2022/09/11 06:32:22;;;;;;;46.63;29.75;;;;;;;13.47;nan;101722.03;5054272;28;20083;-62
2022/09/11 06:34:47;;;;;;;52.53;32.58;;;;;;;13.92;nan;101795.63;5054310;28;20499;-61
2022/09/11 06:37:13;;;;;;;54.45;34.33;;;;;;;13.63;nan;101727.72;5040840;28;20033;-60
2022/09/11 06:39:38;;;;;;;57.60;36.03;;;;;;;14.10;nan;101785.31;5033766;28;20029;-61
2022/09/11 06:42:04;;;;;;;53.45;34.47;;;;;;;14.17;nan;101777.19;5034163;28;20436;-59
2022/09/11 06:44:29;;;;;;;60.67;37.78;;;;;;;14.37;nan;101786.25;5034247;28;20040;-64
2022/09/11 06:46:56;;;;;;;63.10;37.97;;;;;;;14.22;nan;101732.88;5033948;28;20388;-60
2022/09/11 06:49:21;;;;;;;56.58;36.50;;;;;;;14.63;nan;101764.16;5033931;28;20525;-60
2022/09/11 06:51:47;;;;;;;56.83;35.42;;;;;;;14.79;nan;101775.97;5032497;28;20065;-61
2022/09/11 06:54:12;;;;;;;62.55;38.72;;;;;;;14.76;nan;101736.31;5033827;28;20465;-60
2022/09/11 06:56:38;;;;;;;64.25;40.05;;;;;;;14.86;nan;101715.63;5033709;28;20477;-62
2022/09/11 06:59:03;;;;;;;58.88;38.75;;;;;;;15.46;nan;101787.66;5033766;28;20033;-61
2022/09/11 07:01:29;;;;;;;58.20;38.13;;;;;;;15.31;nan;101732.53;5032456;28;20030;-62
2022/09/11 07:03:54;;;;;;;56.45;39.20;;;;;;;15.47;nan;101733.69;5033705;28;20500;-61
2022/09/11 07:06:24;;;;;;;50.95;36.55;;;;;;;15.95;nan;101789.31;5032608;28;20033;-60
2022/09/11 07:08:59;;;;;;;45.42;35.92;;;;;;;16.11;nan;101795.72;5032164;28;20056;-62
2022/09/11 07:11:25;;;;;;;43.95;34.35;;;;;;;15.99;nan;101759.06;5032065;28;20038;-61
2022/09/11 07:13:50;;;;;;;43.45;34.28;;;;;;;15.90;nan;101735.53;5034189;28;20041;-62
2022/09/11 07:16:16;;;;;;;45.83;36.30;;;;;;;16.39;nan;101797.28;5034547;28;20400;-62
2022/09/11 07:18:43;;;;;;;35.67;29.85;;;;;;;16.22;nan;101734.22;5033659;28;20040;-60
2022/09/11 07:21:20;;;;;;;31.83;28.35;;;;;;;16.62;nan;101806.06;5033256;28;20033;-62
2022/09/11 07:23:56;;;;;;;29.02;25.92;;;;;;;16.68;nan;101807.59;5033221;28;20033;-60
2022/09/11 07:26:24;;;;;;;29.45;26.35;;;;;;;16.74;nan;101792.25;5032010;28;20049;-61
2022/09/11 07:28:50;;;;;;;25.45;22.95;;;;;;;17.06;nan;101814.78;5031733;28;20033;-62
2022/09/11 07:31:20;;;;;;;22.42;20.15;;;;;;;17.23;nan;101814.03;5031894;28;20045;-63
2022/09/11 07:33:47;;;;;;;19.35;17.48;;;;;;;17.50;nan;101815.47;5033089;28;20041;-61
2022/09/11 07:36:17;;;;;;;19.63;17.75;;;;;;;17.75;nan;101801.91;5032046;28;20437;-61
2022/09/11 07:38:45;;;;;;;18.25;16.58;;;;;;;17.77;nan;101757.44;5031685;28;20030;-60
2022/09/11 07:41:12;;;;;;;17.30;15.13;;;;;;;18.42;nan;101803.06;5033268;28;20034;-61
2022/09/11 07:43:38;;;;;;;16.08;14.55;;;;;;;18.92;nan;101810.31;5031249;28;20041;-62
2022/09/11 07:46:04;;;;;;;15.45;14.00;;;;;;;19.33;nan;101824.16;5030838;28;20029;-62
2022/09/11 07:48:30;;;;;;;15.57;13.88;;;;;;;20.01;nan;101828.47;5032925;28;20037;-62
2022/09/11 07:50:57;;;;;;;12.50;11.40;;;;;;;20.69;nan;101838.75;5032136;28;20136;-62
2022/09/11 07:53:24;;;;;;;10.85;9.70;;;;;;;20.72;nan;101793.09;5032963;28;20107;-63
2022/09/11 07:55:49;;;;;;;9.80;8.82;;;;;;;21.59;nan;101860.13;5050347;28;20037;-62
2022/09/11 07:58:14;;;;;;;9.55;8.52;;;;;;;22.05;nan;101867.03;5051228;28;20430;-63
2022/09/11 08:00:40;;;;;;;9.85;9.05;;;;;;;22.29;nan;101819.84;5051502;28;20128;-62
2022/09/11 08:03:05;;;;;;;7.70;7.10;;;;;;;22.82;nan;101874.50;5051975;28;20041;-62
2022/09/11 08:05:30;;;;;;;9.57;7.40;;;;;;;23.11;nan;101875.19;5048927;28;20093;-62
2022/09/11 08:07:55;;;;;;;8.18;7.38;;;;;;;23.43;nan;101887.31;5037810;28;20046;-62
2022/09/11 08:10:21;;;;;;;7.75;6.47;;;;;;;23.55;nan;101894.53;5049462;28;20040;-63
2022/09/11 08:12:53;;;;;;;5.07;3.80;;;;;;;23.15;nan;101856.06;5037766;28;20386;-62
2022/09/11 08:15:20;;;;;;;6.28;5.07;;;;;;;23.58;nan;101905.06;5031179;28;20036;-61
2022/09/11 08:17:46;;;;;;;3.70;3.38;;;;;;;22.75;nan;101729.09;5031830;28;20120;-61
2022/09/11 08:20:12;;;;;;;4.07;3.40;;;;;;;23.76;nan;101847.28;5031508;28;20155;-62
2022/09/11 08:22:37;;;;;;;3.72;2.90;;;;;;;24.32;nan;101920.34;5030414;28;20087;-63
2022/09/11 08:25:03;;;;;;;4.63;2.80;;;;;;;24.10;nan;101880.72;5032682;28;20026;-65
2022/09/11 08:27:29;;;;;;;3.88;3.15;;;;;;;24.72;nan;101929.94;5031835;28;20455;-61
2022/09/11 08:29:55;;;;;;;3.80;2.92;;;;;;;24.91;nan;101922.22;5031041;28;20065;-63
2022/09/11 08:32:20;;;;;;;5.07;3.28;;;;;;;24.90;nan;101879.22;5014427;28;20437;-63
2022/09/11 08:34:45;;;;;;;3.85;2.95;;;;;;;25.10;nan;101881.28;5032062;28;20033;-62
2022/09/11 08:37:11;;;;;;;4.10;3.42;;;;;;;25.59;nan;101943.94;5032732;28;20397;-63
2022/09/11 08:39:36;;;;;;;5.00;3.03;;;;;;;25.18;nan;101938.13;5037331;28;20041;-66
2022/09/11 08:42:09;;;;;;;3.42;2.03;;;;;;;25.37;nan;101943.81;5037401;28;20060;-63
2022/09/11 08:44:41;;;;;;;5.85;2.30;;;;;;;25.16;nan;101949.00;5038274;28;20125;-63
2022/09/11 08:47:12;;;;;;;2.90;2.10;;;;;;;24.67;nan;101885.44;5031223;28;20036;-62
2022/09/11 08:49:42;;;;;;;3.45;2.05;;;;;;;25.43;nan;101937.97;5014259;28;20029;-65
2022/09/11 08:52:10;;;;;;;3.20;2.42;;;;;;;25.77;nan;101951.56;5032003;28;20511;-62
2022/09/11 08:54:37;;;;;;;3.75;2.25;;;;;;;26.18;nan;101946.47;5030848;28;20392;-62
2022/09/11 08:57:05;;;;;;;3.92;2.20;;;;;;;26.53;nan;101957.94;5030798;28;20033;-61
2022/09/11 08:59:42;;;;;;;3.95;2.53;;;;;;;26.47;nan;101909.84;5033496;28;20452;-62
2022/09/11 09:02:19;;;;;;;3.70;2.47;;;;;;;26.78;nan;101963.06;5034501;28;20029;-64
2022/09/11 09:04:49;;;;;;;6.30;2.70;;;;;;;26.48;nan;101973.66;5036012;28;20037;-65
2022/09/11 09:07:37;;;;;;;3.60;2.67;;;;;;;26.35;nan;101970.25;5040010;28;20051;-61
2022/09/11 09:10:12;;;;;;;3.92;2.75;;;;;;;26.64;nan;101960.63;5047335;28;20037;-63
2022/09/11 09:13:01;;;;;;;8.18;2.70;;;;;;;27.07;nan;101976.00;5034112;28;20048;-65
2022/09/11 09:15:38;;;;;;;4.18;2.20;;;;;;;27.30;nan;101972.22;5034664;28;20484;-62
2022/09/11 09:18:20;;;;;;;3.17;2.40;;;;;;;27.22;nan;101959.38;5035927;28;20033;-64
2022/09/11 09:21:00;;;;;;;4.40;2.42;;;;;;;28.00;nan;101975.13;5034321;28;20033;-66
2022/09/11 09:23:29;;;;;;;4.00;1.85;;;;;;;27.04;nan;101931.19;5035718;28;20108;-62
2022/09/11 09:25:55;;;;;;;2.97;2.08;;;;;;;27.22;nan;101982.81;5034386;28;20061;-62
2022/09/11 09:28:32;;;;;;;3.22;2.45;;;;;;;26.01;nan;101980.13;5035444;28;20042;-63
2022/09/11 09:31:05;;;;;;;4.75;2.40;;;;;;;24.79;nan;101952.72;5033847;28;20037;-64
2022/09/11 09:33:31;;;;;;;3.13;2.17;;;;;;;24.48;nan;101961.34;5034061;28;20026;-62
2022/09/11 09:36:11;;;;;;;5.80;2.92;;;;;;;24.02;nan;101905.44;5035464;28;20061;-63
2022/09/11 09:38:36;;;;;;;5.88;2.88;;;;;;;23.91;nan;101950.19;5033846;28;20495;-61
2022/09/11 09:41:19;;;;;;;4.72;2.75;;;;;;;23.23;nan;101955.81;5039732;28;20033;-64
2022/09/11 09:44:13;;;;;;;5.78;2.78;;;;;;;22.74;nan;101954.66;5034946;28;20411;-61
2022/09/11 09:46:47;;;;;;;6.05;4.30;;;;;;;22.64;nan;101895.38;5039645;28;20505;-62
2022/09/11 09:49:16;;;;;;;5.30;3.10;;;;;;;23.32;nan;101922.94;5054951;28;20420;-61
2022/09/11 09:51:42;;;;;;;8.85;3.15;;;;;;;23.40;nan;101950.19;5054777;28;20083;-62
2022/09/11 09:54:17;;;;;;;5.35;3.30;;;;;;;23.10;nan;101957.59;5053523;28;20431;-63
2022/09/11 09:56:48;;;;;;;4.38;2.85;;;;;;;22.49;nan;101928.53;5052966;28;20044;-62
2022/09/11 09:59:17;;;;;;;4.45;3.05;;;;;;;22.12;nan;101895.19;5053623;28;20033;-62
2022/09/11 10:01:45;;;;;;;4.22;3.35;;;;;;;22.42;nan;101877.09;5053456;28;20063;-62
2022/09/11 10:04:21;;;;;;;3.17;2.72;;;;;;;23.52;nan;101938.56;5053255;28;20037;-62
2022/09/11 10:06:50;;;;;;;3.13;2.38;;;;;;;24.04;nan;101886.50;5033037;28;20042;-61
2022/09/11 10:09:24;;;;;;;4.85;2.63;;;;;;;25.50;nan;101958.13;5034354;28;20132;-65
2022/09/11 10:11:55;;;;;;;2.63;1.88;;;;;;;27.00;nan;101972.13;5016443;28;20029;-63
2022/09/11 10:14:20;;;;;;;;;;;;;;;27.58;nan;101982.44;5033051;28;20048;-63
2022/09/11 10:16:49;;;;;;;5.10;2.15;;;;;;;27.69;nan;101982.38;5033600;28;20390;-62
2022/09/11 10:19:32;;;;;;;4.30;2.42;;;;;;;27.30;nan;101969.50;5034368;28;20374;-64
2022/09/11 10:22:19;;;;;;;4.38;2.50;;;;;;;26.69;nan;101950.31;5034526;28;20026;-60
2022/09/11 10:24:51;;;;;;;3.58;2.03;;;;;;;26.10;nan;101976.72;5033046;28;20112;-58
2022/09/11 10:27:18;;;;;;;4.22;2.20;;;;;;;25.08;nan;101959.50;5033876;28;20124;-59
2022/09/11 10:29:49;;;;;;;5.03;2.65;;;;;;;24.78;nan;101971.69;5034036;28;20481;-60
2022/09/11 10:32:15;;;;;;;4.57;2.45;;;;;;;23.62;nan;101901.16;5034149;28;20033;-58
2022/09/11 10:34:42;;;;;;;4.88;2.92;;;;;;;23.36;nan;101939.69;5039330;28;20400;-59
2022/09/11 10:37:12;;;;;;;5.70;2.40;;;;;;;22.95;nan;101935.31;5053661;28;20029;-59
2022/09/11 10:39:39;;;;;;;4.30;2.77;;;;;;;22.80;nan;101922.03;5053830;28;20033;-57
2022/09/11 10:42:13;;;;;;;4.70;2.35;;;;;;;23.26;nan;101927.88;5052605;28;20113;-58
2022/09/11 10:44:41;;;;;;;2.72;2.22;;;;;;;23.75;nan;101883.22;5043497;28;20216;-57
2022/09/11 10:47:31;;;;;;;3.22;2.35;;;;;;;24.37;nan;101886.75;5054126;28;20028;-59
2022/09/11 10:50:17;;;;;;;4.13;2.33;;;;;;;24.84;nan;101933.59;5035618;28;20500;-57
2022/09/11 10:52:55;;;;;;;2.92;2.00;;;;;;;24.23;nan;101953.31;5049808;28;20040;-59
2022/09/11 10:55:20;;;;;;;3.72;2.42;;;;;;;23.20;nan;101939.91;5036679;28;20482;-57
2022/09/11 10:57:46;;;;;;;5.38;2.58;;;;;;;22.89;nan;101932.16;5043562;28;20120;-58
2022/09/11 11:00:24;;;;;;;4.23;1.83;;;;;;;22.81;nan;101908.53;5053773;28;20127;-58
2022/09/11 11:02:52;;;;;;;5.90;2.10;;;;;;;23.96;nan;101929.25;5037296;28;20295;-59
2022/09/11 11:05:19;;;;;;;3.95;2.10;;;;;;;26.09;nan;101936.38;5032676;28;20457;-57
2022/09/11 11:08:42;;;;;;;2.83;1.80;;;;;;;27.11;nan;101945.91;5015504;28;20049;-59
2022/09/11 11:11:15;;;;;;;3.13;1.60;;;;;;;26.59;nan;101962.84;4978488;28;20034;-58
2022/09/11 11:13:48;;;;;;;3.42;2.03;;;;;;;25.55;nan;101941.56;4985103;28;20522;-61
2022/09/11 11:16:26;;;;;;;3.90;1.90;;;;;;;25.15;nan;101884.47;5018038;28;20123;-59
2022/09/11 11:19:13;;;;;;;4.60;2.10;;;;;;;25.36;nan;101935.88;5052860;28;20040;-59
2022/09/11 11:22:04;;;;;;;2.85;1.67;;;;;;;24.10;nan;101902.25;5037737;28;20124;-57
2022/09/11 11:24:59;;;;;;;3.35;2.03;;;;;;;23.49;nan;101922.69;5000235;28;20042;-58
2022/09/11 11:27:30;;;;;;;4.25;1.92;;;;;;;23.04;nan;101925.78;5023970;28;20042;-59
2022/09/11 11:30:13;;;;;;;3.72;2.13;;;;;;;22.70;nan;101920.94;5034403;28;20045;-58
2022/09/11 11:32:54;;;;;;;2.92;2.00;;;;;;;22.62;nan;101907.13;5031411;28;20155;-59
2022/09/11 11:35:22;;;;;;;3.47;1.92;;;;;;;22.47;nan;101876.81;5048589;28;20391;-59
2022/09/11 11:37:49;;;;;;;3.83;2.22;;;;;;;22.33;nan;101841.94;5048898;28;20458;-57
2022/09/11 11:40:20;;;;;;;6.80;2.15;;;;;;;22.80;nan;101914.84;5047407;28;20037;-60
2022/09/11 11:42:50;;;;;;;;;;;;;;;23.75;nan;101896.66;5048913;28;20131;-58